sensor_id;sensor_type;location;lat;lon;timestamp;temperature;humidity
32522;DHT22;18963;51.504;5.316;2023-07-09T00:01:23;20.90;99.90
32522;DHT22;18963;51.504;5.316;2023-07-09T00:03:49;20.90;99.90
32522;DHT22;18963;51.504;5.316;2023-07-09T00:06:17;20.90;99.90
32522;DHT22;18963;51.504;5.316;2023-07-09T00:08:43;20.80;99.90
32522;DHT22;18963;51.504;5.316;2023-07-09T00:11:09;20.70;99.90
32522;DHT22;18963;51.504;5.316;2023-07-09T00:13:35;20.70;99.90
32522;DHT22;18963;51.504;5.316;2023-07-09T00:16:01;20.70;99.90
32522;DHT22;18963;51.504;5.316;2023-07-09T00:18:27;20.70;99.90
32522;DHT22;18963;51.504;5.316;2023-07-09T00:20:53;20.60;99.90
32522;DHT22;18963;51.504;5.316;2023-07-09T00:23:19;20.60;99.90
32522;DHT22;18963;51.504;5.316;2023-07-09T00:25:44;20.60;99.90
32522;DHT22;18963;51.504;5.316;2023-07-09T00:28:13;20.50;99.90
32522;DHT22;18963;51.504;5.316;2023-07-09T00:30:39;20.50;99.90
32522;DHT22;18963;51.504;5.316;2023-07-09T00:33:05;20.40;99.90
32522;DHT22;18963;51.504;5.316;2023-07-09T00:35:34;20.40;99.90
32522;DHT22;18963;51.504;5.316;2023-07-09T00:38:00;20.40;99.90
32522;DHT22;18963;51.504;5.316;2023-07-09T00:40:26;20.30;99.90
32522;DHT22;18963;51.504;5.316;2023-07-09T00:42:52;20.20;99.90
32522;DHT22;18963;51.504;5.316;2023-07-09T00:45:23;20.10;99.90
32522;DHT22;18963;51.504;5.316;2023-07-09T00:53:09;20.10;99.90
32522;DHT22;18963;51.504;5.316;2023-07-09T00:55:36;20.10;99.90
32522;DHT22;18963;51.504;5.316;2023-07-09T00:58:04;20.10;99.90
32522;DHT22;18963;51.504;5.316;2023-07-09T01:00:53;20.10;99.90
32522;DHT22;18963;51.504;5.316;2023-07-09T01:03:23;20.10;99.90
32522;DHT22;18963;51.504;5.316;2023-07-09T01:05:51;20.10;99.90
32522;DHT22;18963;51.504;5.316;2023-07-09T01:08:17;20.10;99.90
32522;DHT22;18963;51.504;5.316;2023-07-09T01:10:42;20.00;99.90
32522;DHT22;18963;51.504;5.316;2023-07-09T01:13:08;20.00;99.90
32522;DHT22;18963;51.504;5.316;2023-07-09T01:15:34;20.00;99.90
32522;DHT22;18963;51.504;5.316;2023-07-09T01:18:01;20.00;99.90
32522;DHT22;18963;51.504;5.316;2023-07-09T01:20:27;19.80;99.90
32522;DHT22;18963;51.504;5.316;2023-07-09T01:22:52;19.80;99.90
32522;DHT22;18963;51.504;5.316;2023-07-09T01:25:20;19.70;99.90
32522;DHT22;18963;51.504;5.316;2023-07-09T01:27:46;19.70;99.90
32522;DHT22;18963;51.504;5.316;2023-07-09T01:32:40;19.60;99.90
32522;DHT22;18963;51.504;5.316;2023-07-09T01:35:10;19.50;99.90
32522;DHT22;18963;51.504;5.316;2023-07-09T01:37:37;19.50;99.90
32522;DHT22;18963;51.504;5.316;2023-07-09T01:40:03;19.50;99.90
32522;DHT22;18963;51.504;5.316;2023-07-09T01:42:30;19.40;99.90
32522;DHT22;18963;51.504;5.316;2023-07-09T01:44:56;19.40;99.90
32522;DHT22;18963;51.504;5.316;2023-07-09T01:47:22;19.40;99.90
32522;DHT22;18963;51.504;5.316;2023-07-09T01:49:49;19.40;99.90
32522;DHT22;18963;51.504;5.316;2023-07-09T01:52:15;19.30;99.90
32522;DHT22;18963;51.504;5.316;2023-07-09T01:54:41;19.30;99.90
32522;DHT22;18963;51.504;5.316;2023-07-09T01:57:18;19.30;99.90
32522;DHT22;18963;51.504;5.316;2023-07-09T01:59:50;19.30;99.90
32522;DHT22;18963;51.504;5.316;2023-07-09T02:02:17;19.30;99.90
32522;DHT22;18963;51.504;5.316;2023-07-09T02:04:49;19.30;99.90
32522;DHT22;18963;51.504;5.316;2023-07-09T02:07:15;19.40;99.90
32522;DHT22;18963;51.504;5.316;2023-07-09T02:09:41;19.40;99.90
32522;DHT22;18963;51.504;5.316;2023-07-09T02:12:07;19.40;99.90
32522;DHT22;18963;51.504;5.316;2023-07-09T02:14:33;19.40;99.90
32522;DHT22;18963;51.504;5.316;2023-07-09T02:16:59;19.50;99.90
32522;DHT22;18963;51.504;5.316;2023-07-09T02:19:24;19.50;99.90
32522;DHT22;18963;51.504;5.316;2023-07-09T02:21:50;19.50;99.90
32522;DHT22;18963;51.504;5.316;2023-07-09T02:24:15;19.60;99.90
32522;DHT22;18963;51.504;5.316;2023-07-09T02:26:41;19.60;99.90
32522;DHT22;18963;51.504;5.316;2023-07-09T02:29:06;19.60;99.90
32522;DHT22;18963;51.504;5.316;2023-07-09T02:31:32;19.60;99.90
32522;DHT22;18963;51.504;5.316;2023-07-09T02:33:59;19.60;99.90
32522;DHT22;18963;51.504;5.316;2023-07-09T02:36:24;19.70;99.90
32522;DHT22;18963;51.504;5.316;2023-07-09T02:38:50;19.70;99.90
32522;DHT22;18963;51.504;5.316;2023-07-09T02:41:15;19.70;99.90
32522;DHT22;18963;51.504;5.316;2023-07-09T02:43:41;19.80;99.90
32522;DHT22;18963;51.504;5.316;2023-07-09T02:46:07;19.70;99.90
32522;DHT22;18963;51.504;5.316;2023-07-09T02:48:32;19.70;99.90
32522;DHT22;18963;51.504;5.316;2023-07-09T02:50:58;19.70;99.90
32522;DHT22;18963;51.504;5.316;2023-07-09T02:53:23;19.60;99.90
32522;DHT22;18963;51.504;5.316;2023-07-09T02:55:49;19.50;99.90
32522;DHT22;18963;51.504;5.316;2023-07-09T02:58:14;19.50;99.90
32522;DHT22;18963;51.504;5.316;2023-07-09T03:00:40;19.50;99.90
32522;DHT22;18963;51.504;5.316;2023-07-09T03:03:05;19.40;99.90
32522;DHT22;18963;51.504;5.316;2023-07-09T03:05:30;19.40;99.90
32522;DHT22;18963;51.504;5.316;2023-07-09T03:07:56;19.30;99.90
32522;DHT22;18963;51.504;5.316;2023-07-09T03:10:21;19.30;99.90
32522;DHT22;18963;51.504;5.316;2023-07-09T03:12:47;19.40;99.90
32522;DHT22;18963;51.504;5.316;2023-07-09T03:15:12;19.40;99.90
32522;DHT22;18963;51.504;5.316;2023-07-09T03:17:38;19.40;99.90
32522;DHT22;18963;51.504;5.316;2023-07-09T03:20:04;19.40;99.90
32522;DHT22;18963;51.504;5.316;2023-07-09T03:22:30;19.30;99.90
32522;DHT22;18963;51.504;5.316;2023-07-09T03:24:56;19.30;99.90
32522;DHT22;18963;51.504;5.316;2023-07-09T03:27:21;19.20;99.90
32522;DHT22;18963;51.504;5.316;2023-07-09T03:29:47;19.20;99.90
32522;DHT22;18963;51.504;5.316;2023-07-09T03:32:12;19.20;99.90
32522;DHT22;18963;51.504;5.316;2023-07-09T03:34:38;19.20;99.90
32522;DHT22;18963;51.504;5.316;2023-07-09T03:37:03;19.20;99.90
32522;DHT22;18963;51.504;5.316;2023-07-09T03:39:29;19.20;99.90
32522;DHT22;18963;51.504;5.316;2023-07-09T03:41:54;19.20;99.90
32522;DHT22;18963;51.504;5.316;2023-07-09T03:44:20;19.10;99.90
32522;DHT22;18963;51.504;5.316;2023-07-09T03:46:45;19.10;99.90
32522;DHT22;18963;51.504;5.316;2023-07-09T03:49:11;19.10;99.90
32522;DHT22;18963;51.504;5.316;2023-07-09T03:51:36;19.10;99.90
32522;DHT22;18963;51.504;5.316;2023-07-09T03:54:02;19.10;99.90
32522;DHT22;18963;51.504;5.316;2023-07-09T03:56:27;19.10;99.90
32522;DHT22;18963;51.504;5.316;2023-07-09T03:58:53;19.10;99.90
32522;DHT22;18963;51.504;5.316;2023-07-09T04:01:18;19.10;99.90
32522;DHT22;18963;51.504;5.316;2023-07-09T04:03:44;19.10;99.90
32522;DHT22;18963;51.504;5.316;2023-07-09T04:06:10;19.10;99.90
32522;DHT22;18963;51.504;5.316;2023-07-09T04:08:35;19.20;99.90
32522;DHT22;18963;51.504;5.316;2023-07-09T04:11:01;19.20;99.90
32522;DHT22;18963;51.504;5.316;2023-07-09T04:13:27;19.30;99.90
32522;DHT22;18963;51.504;5.316;2023-07-09T04:15:54;19.30;99.90
32522;DHT22;18963;51.504;5.316;2023-07-09T04:18:19;19.30;99.90
32522;DHT22;18963;51.504;5.316;2023-07-09T04:20:48;19.40;99.90
32522;DHT22;18963;51.504;5.316;2023-07-09T04:23:14;19.40;99.90
32522;DHT22;18963;51.504;5.316;2023-07-09T04:25:40;19.40;99.90
32522;DHT22;18963;51.504;5.316;2023-07-09T04:28:06;19.50;99.90
32522;DHT22;18963;51.504;5.316;2023-07-09T04:30:31;19.60;99.90
32522;DHT22;18963;51.504;5.316;2023-07-09T04:32:57;19.70;99.90
32522;DHT22;18963;51.504;5.316;2023-07-09T04:35:22;19.70;99.90
32522;DHT22;18963;51.504;5.316;2023-07-09T04:37:49;19.80;99.90
32522;DHT22;18963;51.504;5.316;2023-07-09T04:40:14;19.90;99.90
32522;DHT22;18963;51.504;5.316;2023-07-09T04:42:40;20.00;99.90
32522;DHT22;18963;51.504;5.316;2023-07-09T04:45:06;20.10;99.90
32522;DHT22;18963;51.504;5.316;2023-07-09T04:47:32;20.20;99.90
32522;DHT22;18963;51.504;5.316;2023-07-09T04:49:58;20.30;99.90
32522;DHT22;18963;51.504;5.316;2023-07-09T04:52:23;20.50;99.90
32522;DHT22;18963;51.504;5.316;2023-07-09T04:54:49;20.50;99.90
32522;DHT22;18963;51.504;5.316;2023-07-09T04:57:15;20.70;99.90
32522;DHT22;18963;51.504;5.316;2023-07-09T04:59:41;20.80;99.90
32522;DHT22;18963;51.504;5.316;2023-07-09T05:02:07;21.00;99.90
32522;DHT22;18963;51.504;5.316;2023-07-09T05:04:32;21.10;99.90
32522;DHT22;18963;51.504;5.316;2023-07-09T05:06:58;21.20;99.90
32522;DHT22;18963;51.504;5.316;2023-07-09T05:09:24;21.30;99.90
32522;DHT22;18963;51.504;5.316;2023-07-09T05:11:49;21.50;99.90
32522;DHT22;18963;51.504;5.316;2023-07-09T05:14:16;21.60;99.90
32522;DHT22;18963;51.504;5.316;2023-07-09T05:16:42;21.80;99.90
32522;DHT22;18963;51.504;5.316;2023-07-09T05:19:08;21.90;99.90
32522;DHT22;18963;51.504;5.316;2023-07-09T05:21:33;22.10;99.90
32522;DHT22;18963;51.504;5.316;2023-07-09T05:23:59;22.20;99.90
32522;DHT22;18963;51.504;5.316;2023-07-09T05:26:25;22.40;99.90
32522;DHT22;18963;51.504;5.316;2023-07-09T05:28:50;22.50;99.90
32522;DHT22;18963;51.504;5.316;2023-07-09T05:31:16;22.80;99.90
32522;DHT22;18963;51.504;5.316;2023-07-09T05:33:41;23.00;99.90
32522;DHT22;18963;51.504;5.316;2023-07-09T05:36:08;23.20;99.90
32522;DHT22;18963;51.504;5.316;2023-07-09T05:38:33;23.40;99.90
32522;DHT22;18963;51.504;5.316;2023-07-09T05:41:02;23.60;99.90
32522;DHT22;18963;51.504;5.316;2023-07-09T05:43:28;23.80;99.90
32522;DHT22;18963;51.504;5.316;2023-07-09T05:45:54;24.10;99.90
32522;DHT22;18963;51.504;5.316;2023-07-09T05:48:19;24.40;99.90
32522;DHT22;18963;51.504;5.316;2023-07-09T05:50:45;24.60;99.90
32522;DHT22;18963;51.504;5.316;2023-07-09T05:53:10;24.80;99.90
32522;DHT22;18963;51.504;5.316;2023-07-09T05:55:36;25.10;99.90
32522;DHT22;18963;51.504;5.316;2023-07-09T05:58:02;25.30;99.90
32522;DHT22;18963;51.504;5.316;2023-07-09T06:00:28;25.50;99.90
32522;DHT22;18963;51.504;5.316;2023-07-09T06:02:53;25.80;99.90
32522;DHT22;18963;51.504;5.316;2023-07-09T06:05:19;26.00;99.90
32522;DHT22;18963;51.504;5.316;2023-07-09T06:07:45;26.10;99.90
32522;DHT22;18963;51.504;5.316;2023-07-09T06:10:11;26.40;99.90
32522;DHT22;18963;51.504;5.316;2023-07-09T06:12:36;26.60;99.90
32522;DHT22;18963;51.504;5.316;2023-07-09T06:15:02;26.70;99.90
32522;DHT22;18963;51.504;5.316;2023-07-09T06:17:27;26.90;99.90
32522;DHT22;18963;51.504;5.316;2023-07-09T06:19:53;27.20;99.90
32522;DHT22;18963;51.504;5.316;2023-07-09T06:22:19;27.40;99.90
32522;DHT22;18963;51.504;5.316;2023-07-09T06:24:44;27.60;99.90
32522;DHT22;18963;51.504;5.316;2023-07-09T06:27:10;27.90;99.90
32522;DHT22;18963;51.504;5.316;2023-07-09T06:29:36;28.10;99.90
32522;DHT22;18963;51.504;5.316;2023-07-09T06:32:01;28.40;99.90
32522;DHT22;18963;51.504;5.316;2023-07-09T06:34:27;28.70;99.90
32522;DHT22;18963;51.504;5.316;2023-07-09T06:36:52;29.10;99.90
32522;DHT22;18963;51.504;5.316;2023-07-09T06:39:18;29.30;98.90
32522;DHT22;18963;51.504;5.316;2023-07-09T06:41:44;29.60;98.20
32522;DHT22;18963;51.504;5.316;2023-07-09T06:44:10;29.80;98.10
32522;DHT22;18963;51.504;5.316;2023-07-09T06:46:36;30.10;97.20
32522;DHT22;18963;51.504;5.316;2023-07-09T06:49:02;30.30;96.70
32522;DHT22;18963;51.504;5.316;2023-07-09T06:51:27;30.60;94.70
32522;DHT22;18963;51.504;5.316;2023-07-09T06:53:53;30.80;94.30
32522;DHT22;18963;51.504;5.316;2023-07-09T06:56:18;31.10;93.80
32522;DHT22;18963;51.504;5.316;2023-07-09T06:58:44;31.30;92.20
32522;DHT22;18963;51.504;5.316;2023-07-09T07:01:11;31.60;90.90
32522;DHT22;18963;51.504;5.316;2023-07-09T07:03:37;31.90;90.00
32522;DHT22;18963;51.504;5.316;2023-07-09T07:06:03;32.10;88.60
32522;DHT22;18963;51.504;5.316;2023-07-09T07:08:28;32.50;87.20
32522;DHT22;18963;51.504;5.316;2023-07-09T07:10:55;32.50;84.30
32522;DHT22;18963;51.504;5.316;2023-07-09T07:13:31;32.60;80.50
32522;DHT22;18963;51.504;5.316;2023-07-09T07:15:57;32.80;80.00
32522;DHT22;18963;51.504;5.316;2023-07-09T07:18:22;33.10;79.60
32522;DHT22;18963;51.504;5.316;2023-07-09T07:20:49;33.30;77.90
32522;DHT22;18963;51.504;5.316;2023-07-09T07:23:14;33.50;75.50
32522;DHT22;18963;51.504;5.316;2023-07-09T07:25:40;33.80;73.10
32522;DHT22;18963;51.504;5.316;2023-07-09T07:28:06;33.90;71.80
32522;DHT22;18963;51.504;5.316;2023-07-09T07:30:32;34.00;70.30
32522;DHT22;18963;51.504;5.316;2023-07-09T07:32:57;34.20;70.10
32522;DHT22;18963;51.504;5.316;2023-07-09T07:35:23;34.50;69.60
32522;DHT22;18963;51.504;5.316;2023-07-09T07:37:48;34.80;68.60
32522;DHT22;18963;51.504;5.316;2023-07-09T07:40:14;35.10;67.40
32522;DHT22;18963;51.504;5.316;2023-07-09T07:42:39;35.20;65.30
32522;DHT22;18963;51.504;5.316;2023-07-09T07:45:05;35.30;63.60
32522;DHT22;18963;51.504;5.316;2023-07-09T07:47:32;35.30;63.20
32522;DHT22;18963;51.504;5.316;2023-07-09T07:49:58;35.40;61.70
32522;DHT22;18963;51.504;5.316;2023-07-09T07:52:24;35.50;61.40
32522;DHT22;18963;51.504;5.316;2023-07-09T07:54:51;35.60;60.90
32522;DHT22;18963;51.504;5.316;2023-07-09T07:57:17;35.60;60.50
32522;DHT22;18963;51.504;5.316;2023-07-09T07:59:43;35.70;60.10
32522;DHT22;18963;51.504;5.316;2023-07-09T08:02:12;35.90;59.80
32522;DHT22;18963;51.504;5.316;2023-07-09T08:04:39;36.30;60.40
32522;DHT22;18963;51.504;5.316;2023-07-09T08:07:05;36.50;58.90
32522;DHT22;18963;51.504;5.316;2023-07-09T08:09:33;36.80;58.00
32522;DHT22;18963;51.504;5.316;2023-07-09T08:11:58;36.90;57.10
32522;DHT22;18963;51.504;5.316;2023-07-09T08:14:24;36.90;56.90
32522;DHT22;18963;51.504;5.316;2023-07-09T08:16:49;37.10;56.80
32522;DHT22;18963;51.504;5.316;2023-07-09T08:19:17;37.40;56.00
32522;DHT22;18963;51.504;5.316;2023-07-09T08:21:43;37.80;55.50
32522;DHT22;18963;51.504;5.316;2023-07-09T08:24:08;38.00;55.50
32522;DHT22;18963;51.504;5.316;2023-07-09T08:26:34;38.20;54.20
32522;DHT22;18963;51.504;5.316;2023-07-09T08:29:00;38.40;53.70
32522;DHT22;18963;51.504;5.316;2023-07-09T08:31:26;38.50;53.20
32522;DHT22;18963;51.504;5.316;2023-07-09T08:33:51;38.50;51.80
32522;DHT22;18963;51.504;5.316;2023-07-09T08:36:17;38.40;51.60
32522;DHT22;18963;51.504;5.316;2023-07-09T08:38:42;37.90;51.40
32522;DHT22;18963;51.504;5.316;2023-07-09T08:43:35;38.00;51.40
32522;DHT22;18963;51.504;5.316;2023-07-09T08:46:02;38.10;51.50
32522;DHT22;18963;51.504;5.316;2023-07-09T08:48:35;38.20;51.40
32522;DHT22;18963;51.504;5.316;2023-07-09T08:51:10;38.40;51.40
32522;DHT22;18963;51.504;5.316;2023-07-09T08:53:50;38.70;51.20
32522;DHT22;18963;51.504;5.316;2023-07-09T08:56:16;39.10;50.30
32522;DHT22;18963;51.504;5.316;2023-07-09T08:58:42;39.30;49.90
32522;DHT22;18963;51.504;5.316;2023-07-09T09:01:22;39.30;49.40
32522;DHT22;18963;51.504;5.316;2023-07-09T09:04:31;39.30;48.90
32522;DHT22;18963;51.504;5.316;2023-07-09T09:06:37;39.00;49.40
32522;DHT22;18963;51.504;5.316;2023-07-09T09:11:53;39.40;49.00
32522;DHT22;18963;51.504;5.316;2023-07-09T09:14:29;39.60;49.00
32522;DHT22;18963;51.504;5.316;2023-07-09T09:16:55;39.60;48.80
32522;DHT22;18963;51.504;5.316;2023-07-09T09:19:29;39.90;49.50
32522;DHT22;18963;51.504;5.316;2023-07-09T09:22:02;40.20;47.40
32522;DHT22;18963;51.504;5.316;2023-07-09T09:24:36;40.40;47.50
32522;DHT22;18963;51.504;5.316;2023-07-09T09:27:02;40.40;47.80
32522;DHT22;18963;51.504;5.316;2023-07-09T09:29:28;40.70;47.60
32522;DHT22;18963;51.504;5.316;2023-07-09T09:31:57;40.90;46.80
32522;DHT22;18963;51.504;5.316;2023-07-09T09:34:27;40.70;46.90
32522;DHT22;18963;51.504;5.316;2023-07-09T09:36:56;41.10;47.40
32522;DHT22;18963;51.504;5.316;2023-07-09T09:39:23;41.40;46.00
32522;DHT22;18963;51.504;5.316;2023-07-09T09:41:49;41.50;44.90
32522;DHT22;18963;51.504;5.316;2023-07-09T09:44:17;41.70;44.80
32522;DHT22;18963;51.504;5.316;2023-07-09T09:46:43;41.70;44.10
32522;DHT22;18963;51.504;5.316;2023-07-09T09:49:09;41.70;44.50
32522;DHT22;18963;51.504;5.316;2023-07-09T09:51:35;41.60;43.90
32522;DHT22;18963;51.504;5.316;2023-07-09T09:54:02;41.70;43.90
32522;DHT22;18963;51.504;5.316;2023-07-09T09:56:29;41.60;44.30
32522;DHT22;18963;51.504;5.316;2023-07-09T09:58:55;41.70;44.30
32522;DHT22;18963;51.504;5.316;2023-07-09T10:01:25;41.50;44.00
32522;DHT22;18963;51.504;5.316;2023-07-09T10:03:51;41.70;44.80
32522;DHT22;18963;51.504;5.316;2023-07-09T10:06:21;42.10;43.90
32522;DHT22;18963;51.504;5.316;2023-07-09T10:08:57;42.30;43.60
32522;DHT22;18963;51.504;5.316;2023-07-09T10:11:28;42.80;43.70
32522;DHT22;18963;51.504;5.316;2023-07-09T10:14:00;43.10;43.20
32522;DHT22;18963;51.504;5.316;2023-07-09T10:16:30;43.00;43.00
32522;DHT22;18963;51.504;5.316;2023-07-09T10:19:09;43.10;43.20
32522;DHT22;18963;51.504;5.316;2023-07-09T10:27:09;43.60;42.70
32522;DHT22;18963;51.504;5.316;2023-07-09T10:29:40;43.60;42.30
32522;DHT22;18963;51.504;5.316;2023-07-09T10:32:28;43.30;42.80
32522;DHT22;18963;51.504;5.316;2023-07-09T10:35:01;43.60;42.40
32522;DHT22;18963;51.504;5.316;2023-07-09T10:39:55;43.90;42.00
32522;DHT22;18963;51.504;5.316;2023-07-09T10:50:05;43.70;42.20
32522;DHT22;18963;51.504;5.316;2023-07-09T10:52:36;43.80;41.70
32522;DHT22;18963;51.504;5.316;2023-07-09T10:55:08;43.90;41.20
32522;DHT22;18963;51.504;5.316;2023-07-09T10:57:43;44.00;41.70
32522;DHT22;18963;51.504;5.316;2023-07-09T11:00:17;44.00;41.00
32522;DHT22;18963;51.504;5.316;2023-07-09T11:02:43;43.80;40.70
32522;DHT22;18963;51.504;5.316;2023-07-09T11:05:09;43.50;41.50
32522;DHT22;18963;51.504;5.316;2023-07-09T11:10:10;43.40;41.90
32522;DHT22;18963;51.504;5.316;2023-07-09T11:12:38;43.40;41.70
32522;DHT22;18963;51.504;5.316;2023-07-09T11:15:06;43.00;41.80
32522;DHT22;18963;51.504;5.316;2023-07-09T11:17:34;42.90;41.90
32522;DHT22;18963;51.504;5.316;2023-07-09T11:20:06;42.70;41.60
32522;DHT22;18963;51.504;5.316;2023-07-09T11:22:38;42.80;42.30
32522;DHT22;18963;51.504;5.316;2023-07-09T11:25:14;42.80;41.40
32522;DHT22;18963;51.504;5.316;2023-07-09T11:27:53;42.80;41.60
32522;DHT22;18963;51.504;5.316;2023-07-09T11:30:25;42.60;41.70
32522;DHT22;18963;51.504;5.316;2023-07-09T11:32:52;42.50;41.90
32522;DHT22;18963;51.504;5.316;2023-07-09T11:35:25;42.20;41.90
32522;DHT22;18963;51.504;5.316;2023-07-09T11:37:51;41.70;41.70
32522;DHT22;18963;51.504;5.316;2023-07-09T11:40:18;41.40;42.40
32522;DHT22;18963;51.504;5.316;2023-07-09T11:45:13;41.10;42.20
32522;DHT22;18963;51.504;5.316;2023-07-09T11:47:44;40.80;43.20
32522;DHT22;18963;51.504;5.316;2023-07-09T11:50:15;40.60;44.00
32522;DHT22;18963;51.504;5.316;2023-07-09T11:52:50;40.30;45.20
32522;DHT22;18963;51.504;5.316;2023-07-09T11:55:21;40.10;45.80
32522;DHT22;18963;51.504;5.316;2023-07-09T12:00:20;39.50;46.90
32522;DHT22;18963;51.504;5.316;2023-07-09T12:02:45;39.10;47.10
32522;DHT22;18963;51.504;5.316;2023-07-09T12:05:11;38.50;47.40
32522;DHT22;18963;51.504;5.316;2023-07-09T12:07:37;38.10;48.00
32522;DHT22;18963;51.504;5.316;2023-07-09T12:10:03;37.80;48.50
32522;DHT22;18963;51.504;5.316;2023-07-09T12:12:29;37.40;49.60
32522;DHT22;18963;51.504;5.316;2023-07-09T12:14:55;37.20;50.40
32522;DHT22;18963;51.504;5.316;2023-07-09T12:17:26;36.80;51.10
32522;DHT22;18963;51.504;5.316;2023-07-09T12:19:52;36.50;51.40
32522;DHT22;18963;51.504;5.316;2023-07-09T12:22:21;36.20;51.60
32522;DHT22;18963;51.504;5.316;2023-07-09T12:24:47;35.90;52.30
32522;DHT22;18963;51.504;5.316;2023-07-09T12:27:26;35.60;52.40
32522;DHT22;18963;51.504;5.316;2023-07-09T12:29:53;35.30;52.80
32522;DHT22;18963;51.504;5.316;2023-07-09T12:32:19;35.10;53.60
32522;DHT22;18963;51.504;5.316;2023-07-09T12:34:51;34.80;54.10
32522;DHT22;18963;51.504;5.316;2023-07-09T12:37:17;34.60;55.00
32522;DHT22;18963;51.504;5.316;2023-07-09T12:39:43;34.50;55.70
32522;DHT22;18963;51.504;5.316;2023-07-09T12:42:14;34.40;56.10
32522;DHT22;18963;51.504;5.316;2023-07-09T12:44:41;34.20;56.10
32522;DHT22;18963;51.504;5.316;2023-07-09T12:47:07;34.10;56.70
32522;DHT22;18963;51.504;5.316;2023-07-09T12:49:41;33.90;56.60
32522;DHT22;18963;51.504;5.316;2023-07-09T12:52:09;33.80;56.50
32522;DHT22;18963;51.504;5.316;2023-07-09T12:54:37;33.60;56.40
32522;DHT22;18963;51.504;5.316;2023-07-09T12:57:03;33.40;56.70
32522;DHT22;18963;51.504;5.316;2023-07-09T12:59:37;33.20;57.20
32522;DHT22;18963;51.504;5.316;2023-07-09T13:04:48;32.80;58.40
32522;DHT22;18963;51.504;5.316;2023-07-09T13:07:25;32.60;59.20
32522;DHT22;18963;51.504;5.316;2023-07-09T13:09:52;32.40;59.70
32522;DHT22;18963;51.504;5.316;2023-07-09T13:12:19;32.10;60.70
32522;DHT22;18963;51.504;5.316;2023-07-09T13:14:54;31.80;61.90
32522;DHT22;18963;51.504;5.316;2023-07-09T13:17:20;31.60;61.20
32522;DHT22;18963;51.504;5.316;2023-07-09T13:19:46;31.20;61.30
32522;DHT22;18963;51.504;5.316;2023-07-09T13:22:15;31.00;62.10
32522;DHT22;18963;51.504;5.316;2023-07-09T13:24:41;30.70;62.20
32522;DHT22;18963;51.504;5.316;2023-07-09T13:27:08;30.50;62.50
32522;DHT22;18963;51.504;5.316;2023-07-09T13:29:36;30.20;63.00
32522;DHT22;18963;51.504;5.316;2023-07-09T13:32:02;30.00;63.80
32522;DHT22;18963;51.504;5.316;2023-07-09T13:34:27;29.80;64.30
32522;DHT22;18963;51.504;5.316;2023-07-09T13:36:58;29.60;64.20
32522;DHT22;18963;51.504;5.316;2023-07-09T13:39:24;29.30;64.60
32522;DHT22;18963;51.504;5.316;2023-07-09T13:41:50;29.20;65.30
32522;DHT22;18963;51.504;5.316;2023-07-09T13:44:17;29.10;66.60
32522;DHT22;18963;51.504;5.316;2023-07-09T13:46:44;29.00;67.70
32522;DHT22;18963;51.504;5.316;2023-07-09T13:49:13;28.70;71.30
32522;DHT22;18963;51.504;5.316;2023-07-09T13:51:40;28.40;76.40
32522;DHT22;18963;51.504;5.316;2023-07-09T13:54:20;27.70;84.20
32522;DHT22;18963;51.504;5.316;2023-07-09T13:56:46;26.90;97.90
32522;DHT22;18963;51.504;5.316;2023-07-09T13:59:20;26.10;99.90
32522;DHT22;18963;51.504;5.316;2023-07-09T14:01:47;25.60;99.90
32522;DHT22;18963;51.504;5.316;2023-07-09T14:04:14;25.10;99.90
32522;DHT22;18963;51.504;5.316;2023-07-09T14:06:40;24.70;99.90
32522;DHT22;18963;51.504;5.316;2023-07-09T14:09:06;24.40;99.90
32522;DHT22;18963;51.504;5.316;2023-07-09T14:11:33;24.10;99.90
32522;DHT22;18963;51.504;5.316;2023-07-09T14:13:59;23.70;99.90
32522;DHT22;18963;51.504;5.316;2023-07-09T14:16:25;23.50;99.90
32522;DHT22;18963;51.504;5.316;2023-07-09T14:18:50;23.40;99.90
32522;DHT22;18963;51.504;5.316;2023-07-09T14:21:25;23.30;99.90
32522;DHT22;18963;51.504;5.316;2023-07-09T14:23:52;23.40;99.90
32522;DHT22;18963;51.504;5.316;2023-07-09T14:26:17;23.60;99.90
32522;DHT22;18963;51.504;5.316;2023-07-09T14:28:43;23.80;99.90
32522;DHT22;18963;51.504;5.316;2023-07-09T14:31:26;23.90;99.90
32522;DHT22;18963;51.504;5.316;2023-07-09T14:33:52;24.20;99.90
32522;DHT22;18963;51.504;5.316;2023-07-09T14:36:17;24.40;99.90
32522;DHT22;18963;51.504;5.316;2023-07-09T14:38:43;24.60;99.90
32522;DHT22;18963;51.504;5.316;2023-07-09T14:41:15;24.70;99.90
32522;DHT22;18963;51.504;5.316;2023-07-09T14:43:43;24.80;99.90
32522;DHT22;18963;51.504;5.316;2023-07-09T14:46:08;25.00;99.90
32522;DHT22;18963;51.504;5.316;2023-07-09T14:48:34;25.10;99.90
32522;DHT22;18963;51.504;5.316;2023-07-09T14:50:59;25.20;99.90
32522;DHT22;18963;51.504;5.316;2023-07-09T14:53:25;25.30;99.90
32522;DHT22;18963;51.504;5.316;2023-07-09T14:55:54;25.10;99.90
32522;DHT22;18963;51.504;5.316;2023-07-09T14:58:20;25.10;99.90
32522;DHT22;18963;51.504;5.316;2023-07-09T15:00:46;25.20;99.90
32522;DHT22;18963;51.504;5.316;2023-07-09T15:03:18;25.20;99.90
32522;DHT22;18963;51.504;5.316;2023-07-09T15:05:44;25.10;99.90
32522;DHT22;18963;51.504;5.316;2023-07-09T15:08:13;25.10;99.90
32522;DHT22;18963;51.504;5.316;2023-07-09T15:10:39;25.20;99.90
32522;DHT22;18963;51.504;5.316;2023-07-09T15:13:05;25.20;99.90
32522;DHT22;18963;51.504;5.316;2023-07-09T15:15:33;25.40;99.90
32522;DHT22;18963;51.504;5.316;2023-07-09T15:18:00;25.50;99.90
32522;DHT22;18963;51.504;5.316;2023-07-09T15:20:26;25.60;99.90
32522;DHT22;18963;51.504;5.316;2023-07-09T15:22:53;25.50;99.90
32522;DHT22;18963;51.504;5.316;2023-07-09T15:25:21;25.60;99.90
32522;DHT22;18963;51.504;5.316;2023-07-09T15:27:47;25.50;99.90
32522;DHT22;18963;51.504;5.316;2023-07-09T15:30:13;25.50;99.90
32522;DHT22;18963;51.504;5.316;2023-07-09T15:32:39;25.40;99.90
32522;DHT22;18963;51.504;5.316;2023-07-09T15:35:04;25.30;99.90
32522;DHT22;18963;51.504;5.316;2023-07-09T15:37:30;25.20;99.90
32522;DHT22;18963;51.504;5.316;2023-07-09T15:39:55;25.30;99.90
32522;DHT22;18963;51.504;5.316;2023-07-09T15:42:21;25.30;99.90
32522;DHT22;18963;51.504;5.316;2023-07-09T15:44:46;25.40;99.90
32522;DHT22;18963;51.504;5.316;2023-07-09T15:47:16;25.50;99.90
32522;DHT22;18963;51.504;5.316;2023-07-09T15:49:42;25.50;99.90
32522;DHT22;18963;51.504;5.316;2023-07-09T15:52:08;25.40;99.90
32522;DHT22;18963;51.504;5.316;2023-07-09T15:54:33;25.40;99.90
32522;DHT22;18963;51.504;5.316;2023-07-09T15:56:59;25.30;99.90
32522;DHT22;18963;51.504;5.316;2023-07-09T15:59:32;25.30;99.90
32522;DHT22;18963;51.504;5.316;2023-07-09T16:01:58;25.40;99.90
32522;DHT22;18963;51.504;5.316;2023-07-09T16:04:24;25.40;99.90
32522;DHT22;18963;51.504;5.316;2023-07-09T16:06:50;25.50;99.90
32522;DHT22;18963;51.504;5.316;2023-07-09T16:09:16;25.50;99.90